Time;durP1;ratioP1;P1;durP2;ratioP2;P2;SDS_P1;SDS_P2;PMS_P1;PMS_P2;Temp;Humidity;BMP_temperature;BMP_pressure;BME280_temperature;BME280_humidity;BME280_pressure;Samples;Min_cycle;Max_cycle;Signal;HPM_P1;HPM_P2
2023/03/03 00:00:07;;;;;;;64.80;25.92;;;;;;;-1.35;100.00;93956.31;5030461;28;20041;-59
2023/03/03 00:02:33;;;;;;;73.35;26.35;;;;;;;-1.39;100.00;93960.03;5029904;28;20052;-59
2023/03/03 00:05:00;;;;;;;68.07;26.05;;;;;;;-1.47;100.00;93959.00;5030223;28;20048;-60
2023/03/03 00:07:27;;;;;;;67.50;24.60;;;;;;;-1.44;100.00;93964.50;5031719;28;20041;-60
2023/03/03 00:09:53;;;;;;;65.97;25.05;;;;;;;-1.46;100.00;93956.00;5039062;28;20048;-62
2023/03/03 00:12:24;;;;;;;75.80;28.60;;;;;;;-1.56;100.00;93961.06;5028748;28;20049;-62
2023/03/03 00:14:50;;;;;;;71.78;27.23;;;;;;;-1.70;100.00;93959.47;5029900;28;20045;-59
2023/03/03 00:17:23;;;;;;;66.15;26.63;;;;;;;-1.73;100.00;93960.16;5028683;28;20041;-59
2023/03/03 00:19:51;;;;;;;66.93;26.53;;;;;;;-1.78;100.00;93964.97;5029438;28;20441;-59
2023/03/03 00:22:30;;;;;;;66.88;24.75;;;;;;;-1.81;100.00;93964.53;5030074;28;20041;-60
2023/03/03 00:25:24;;;;;;;76.60;29.98;;;;;;;-1.84;100.00;93972.47;5027076;28;20857;-59
2023/03/03 00:27:51;;;;;;;77.28;27.02;;;;;;;-1.90;100.00;93974.59;5025329;28;20087;-59
2023/03/03 00:30:26;;;;;;;66.20;25.83;;;;;;;-1.93;100.00;93967.22;5029629;28;20041;-59
2023/03/03 00:32:54;;;;;;;66.37;24.93;;;;;;;-1.94;100.00;93967.53;5029478;28;20037;-59
2023/03/03 00:35:26;;;;;;;66.05;24.67;;;;;;;-1.99;100.00;93965.88;5025762;28;20056;-58
2023/03/03 00:37:59;;;;;;;71.18;26.08;;;;;;;-2.02;100.00;93966.53;5012245;28;20501;-58
2023/03/03 00:40:39;;;;;;;64.78;24.10;;;;;;;-2.06;100.00;93962.94;5030083;28;20044;-59
2023/03/03 00:43:24;;;;;;;71.88;25.30;;;;;;;-2.06;100.00;93955.63;5028962;28;20448;-58
2023/03/03 00:45:53;;;;;;;67.13;25.60;;;;;;;-2.12;100.00;93950.81;5023200;28;20044;-59
2023/03/03 00:48:22;;;;;;;68.07;25.48;;;;;;;-2.11;100.00;93957.75;5029912;28;20102;-60
2023/03/03 00:50:50;;;;;;;67.00;25.33;;;;;;;-2.13;100.00;93965.38;5029196;28;20397;-60
2023/03/03 00:53:19;;;;;;;63.55;26.02;;;;;;;-2.16;100.00;93960.69;5016901;28;20103;-59
2023/03/03 00:55:48;;;;;;;232.70;87.95;;;;;;;-2.18;100.00;93962.91;5029136;28;20051;-59
2023/03/03 00:58:15;;;;;;;97.77;37.00;;;;;;;-2.22;100.00;93963.56;5028217;28;20466;-59
2023/03/03 01:00:42;;;;;;;72.13;27.60;;;;;;;-2.27;100.00;93966.50;5029288;28;20072;-60
2023/03/03 01:03:13;;;;;;;70.13;26.75;;;;;;;-2.33;100.00;93959.75;5029496;28;20048;-62
2023/03/03 01:05:40;;;;;;;64.20;24.23;;;;;;;-2.34;100.00;93970.81;5027978;28;20052;-59
2023/03/03 01:08:07;;;;;;;67.07;25.50;;;;;;;-2.44;100.00;93967.44;5029275;28;20045;-60
2023/03/03 01:10:39;;;;;;;65.47;25.07;;;;;;;-2.47;100.00;93970.81;5029713;28;20399;-62
2023/03/03 01:13:06;;;;;;;65.70;24.48;;;;;;;-2.48;100.00;93965.75;5029563;28;20037;-60
2023/03/03 01:15:33;;;;;;;66.22;24.40;;;;;;;-2.48;100.00;93965.75;5027749;28;20075;-59
2023/03/03 01:18:00;;;;;;;61.40;23.70;;;;;;;-2.51;100.00;93967.22;5029327;28;20071;-60
2023/03/03 01:20:27;;;;;;;65.03;23.58;;;;;;;-2.56;100.00;93963.94;5029397;28;20076;-59
2023/03/03 01:22:54;;;;;;;59.43;22.10;;;;;;;-2.61;100.00;93963.03;5028935;28;20049;-61
2023/03/03 01:25:21;;;;;;;60.42;23.10;;;;;;;-2.63;100.00;93972.53;5029382;28;20119;-60
2023/03/03 01:27:47;;;;;;;62.75;23.33;;;;;;;-2.70;100.00;93972.28;5027758;28;20046;-59
2023/03/03 01:30:14;;;;;;;65.60;23.65;;;;;;;-2.69;100.00;93960.44;5027617;28;20048;-60
2023/03/03 01:32:41;;;;;;;62.53;22.85;;;;;;;-2.70;100.00;93961.53;5029039;28;20045;-60
2023/03/03 01:35:08;;;;;;;76.07;29.00;;;;;;;-2.69;100.00;93961.22;5026143;28;20052;-60
2023/03/03 01:37:35;;;;;;;74.05;26.58;;;;;;;-2.71;100.00;93959.97;5024249;28;20046;-60
2023/03/03 01:40:05;;;;;;;67.35;24.13;;;;;;;-2.76;100.00;93963.63;5033045;28;20041;-59
2023/03/03 01:42:31;;;;;;;62.25;23.42;;;;;;;-2.78;100.00;93962.41;5032655;28;20045;-59
2023/03/03 01:45:22;;;;;;;63.40;23.13;;;;;;;-2.78;100.00;93962.41;5031466;28;20033;-59
2023/03/03 01:47:57;;;;;;;62.17;23.10;;;;;;;-2.76;100.00;93958.25;5031903;28;20041;-59
2023/03/03 01:50:50;;;;;;;60.42;22.45;;;;;;;-2.81;100.00;93956.56;5032839;28;20146;-61
2023/03/03 01:53:21;;;;;;;58.28;22.65;;;;;;;-2.84;100.00;93961.81;5030785;28;20041;-60
2023/03/03 01:55:51;;;;;;;64.30;21.90;;;;;;;-2.88;100.00;93956.34;5032380;28;20053;-60
2023/03/03 01:58:32;;;;;;;63.92;23.23;;;;;;;-2.89;100.00;93956.66;5045883;28;20494;-60
2023/03/03 02:01:08;;;;;;;61.57;21.20;;;;;;;-2.89;100.00;93946.69;5031575;28;21680;-59
2023/03/03 02:03:35;;;;;;;60.58;22.00;;;;;;;-2.92;100.00;93946.56;5032430;28;20051;-62
2023/03/03 02:06:13;;;;;;;60.47;22.52;;;;;;;-2.92;100.00;93954.63;5032319;28;20040;-60
2023/03/03 02:09:06;;;;;;;65.03;22.52;;;;;;;-3.01;100.00;93943.97;5031997;28;20057;-60
2023/03/03 02:11:36;;;;;;;56.67;21.83;;;;;;;-3.09;100.00;93942.13;5031778;28;20045;-60
2023/03/03 02:14:03;;;;;;;59.13;21.40;;;;;;;-3.09;100.00;93936.78;5032398;28;20041;-60
2023/03/03 02:16:30;;;;;;;63.03;21.58;;;;;;;-3.09;100.00;93945.59;5031815;28;20049;-58
2023/03/03 02:18:56;;;;;;;67.45;24.25;;;;;;;-3.10;100.00;93936.00;5032269;28;20068;-61
2023/03/03 02:21:27;;;;;;;61.50;22.38;;;;;;;-3.13;100.00;93938.53;5032052;28;20079;-61
2023/03/03 02:24:21;;;;;;;62.33;22.23;;;;;;;-3.10;100.00;93937.88;5031881;28;20037;-60
2023/03/03 02:26:48;;;;;;;60.57;22.57;;;;;;;-3.12;100.00;93937.41;5031619;28;20045;-61
2023/03/03 02:29:14;;;;;;;60.28;21.88;;;;;;;-3.13;100.00;93939.31;5031735;28;20055;-60
2023/03/03 02:31:42;;;;;;;58.60;23.05;;;;;;;-3.13;100.00;93933.16;5031418;28;20064;-60
2023/03/03 02:34:09;;;;;;;62.90;22.15;;;;;;;-3.14;100.00;93937.75;5032144;28;20049;-59
2023/03/03 02:36:38;;;;;;;59.83;22.38;;;;;;;-3.16;100.00;93931.91;5030095;28;20091;-60
2023/03/03 02:39:25;;;;;;;64.10;22.27;;;;;;;-3.18;100.00;93936.81;5030592;28;20052;-60
2023/03/03 02:42:05;;;;;;;63.88;22.52;;;;;;;-3.21;100.00;93932.13;5017120;28;20038;-60
2023/03/03 02:44:33;;;;;;;62.10;22.02;;;;;;;-3.22;100.00;93927.84;5031399;28;20486;-60
2023/03/03 02:47:00;;;;;;;61.53;22.10;;;;;;;-3.26;100.00;93933.13;5031887;28;20049;-60
2023/03/03 02:49:32;;;;;;;64.10;22.05;;;;;;;-3.29;100.00;93936.44;5029798;28;20067;-60
2023/03/03 02:52:01;;;;;;;59.00;21.70;;;;;;;-3.31;100.00;93935.19;5030724;28;20796;-61
2023/03/03 02:54:29;;;;;;;59.80;22.13;;;;;;;-3.36;100.00;93930.81;5031410;28;20045;-61
2023/03/03 02:56:57;;;;;;;60.28;22.65;;;;;;;-3.41;100.00;93922.97;5030594;28;20584;-60
2023/03/03 02:59:24;;;;;;;61.60;22.17;;;;;;;-3.39;100.00;93922.63;5031418;28;20099;-62
2023/03/03 03:01:51;;;;;;;58.13;21.85;;;;;;;-3.39;100.00;93919.94;5031151;28;20041;-60
2023/03/03 03:04:21;;;;;;;65.10;22.40;;;;;;;-3.39;100.00;93918.03;5031519;28;20037;-60
2023/03/03 03:06:48;;;;;;;63.63;23.13;;;;;;;-3.37;100.00;93923.09;5031149;28;20053;-58
2023/03/03 03:09:15;;;;;;;65.32;22.60;;;;;;;-3.35;100.00;93918.97;5030950;28;20041;-59
2023/03/03 03:11:42;;;;;;;62.75;23.17;;;;;;;-3.34;100.00;93917.88;5040156;28;20044;-59
2023/03/03 03:14:11;;;;;;;60.75;22.73;;;;;;;-3.33;100.00;93913.28;5034808;28;20062;-59
2023/03/03 03:16:38;;;;;;;67.80;24.20;;;;;;;-3.37;100.00;93910.44;5016019;28;20587;-61
2023/03/03 03:19:05;;;;;;;65.82;24.92;;;;;;;-3.48;100.00;93902.03;5014792;28;20044;-60
2023/03/03 03:21:32;;;;;;;69.63;27.13;;;;;;;-3.45;100.00;93903.25;5030650;28;20045;-60
2023/03/03 03:23:59;;;;;;;67.60;26.58;;;;;;;-3.46;100.00;93907.84;5031182;28;20508;-61
2023/03/03 03:26:26;;;;;;;64.93;24.80;;;;;;;-3.45;100.00;93922.03;5030949;28;20055;-60
2023/03/03 03:28:53;;;;;;;60.40;22.20;;;;;;;-3.50;100.00;93925.72;5030145;28;20041;-59
2023/03/03 03:31:20;;;;;;;64.07;24.38;;;;;;;-3.56;100.00;93928.88;5030542;28;20394;-62
2023/03/03 03:33:48;;;;;;;63.92;24.50;;;;;;;-3.53;100.00;93926.34;5030469;28;20457;-60
2023/03/03 03:36:15;;;;;;;70.43;24.92;;;;;;;-3.75;100.00;93924.75;5030828;28;20049;-63
2023/03/03 03:38:42;;;;;;;68.40;24.80;;;;;;;-3.85;100.00;93933.16;5030193;28;20057;-62
2023/03/03 03:41:10;;;;;;;68.37;25.63;;;;;;;-3.82;100.00;93930.63;5030655;28;20045;-60
2023/03/03 03:43:37;;;;;;;66.18;24.52;;;;;;;-3.75;100.00;93943.53;5030126;28;20041;-60
2023/03/03 03:46:04;;;;;;;70.45;24.75;;;;;;;-3.73;100.00;93953.94;5043731;28;20044;-60
2023/03/03 03:48:31;;;;;;;65.60;23.20;;;;;;;-3.74;100.00;93945.09;5028652;28;20045;-60
2023/03/03 03:50:58;;;;;;;63.63;23.77;;;;;;;-3.81;100.00;93945.59;5029160;28;20414;-61
2023/03/03 03:53:25;;;;;;;66.70;23.90;;;;;;;-3.78;100.00;93946.06;5030719;28;20138;-61
2023/03/03 03:55:52;;;;;;;67.30;25.48;;;;;;;-3.77;100.00;93945.75;5029986;28;20041;-60
2023/03/03 03:58:19;;;;;;;70.75;27.27;;;;;;;-3.76;100.00;93943.84;5030285;28;20478;-62
2023/03/03 04:00:46;;;;;;;65.05;24.92;;;;;;;-3.78;100.00;93946.88;5028936;28;20437;-60
2023/03/03 04:03:13;;;;;;;67.20;24.00;;;;;;;-3.79;100.00;93939.91;5030059;28;20047;-60
2023/03/03 04:05:41;;;;;;;65.20;22.77;;;;;;;-3.76;100.00;93943.84;5029711;28;20076;-60
2023/03/03 04:08:07;;;;;;;62.22;23.67;;;;;;;-3.79;100.00;93941.81;5029887;28;20045;-60
2023/03/03 04:10:34;;;;;;;64.97;23.60;;;;;;;-3.83;100.00;93947.03;5029475;28;20052;-60
2023/03/03 04:13:01;;;;;;;61.65;23.10;;;;;;;-3.80;100.00;93943.72;5029847;28;20063;-61
2023/03/03 04:15:28;;;;;;;67.22;24.85;;;;;;;-3.76;100.00;93939.28;5038592;28;20049;-60
2023/03/03 04:17:54;;;;;;;74.20;26.57;;;;;;;-3.88;100.00;93950.69;5033479;28;20505;-60
2023/03/03 04:20:21;;;;;;;70.45;25.45;;;;;;;-3.74;100.00;93946.97;5030077;28;20472;-61
2023/03/03 04:22:48;;;;;;;68.60;25.65;;;;;;;-3.66;100.00;93946.94;5029542;28;20517;-61
2023/03/03 04:25:16;;;;;;;64.35;23.48;;;;;;;-3.50;100.00;93949.03;5029824;28;20110;-60
2023/03/03 04:27:43;;;;;;;65.78;24.05;;;;;;;-3.44;100.00;93951.22;5027953;28;20063;-59
2023/03/03 04:30:12;;;;;;;63.60;23.00;;;;;;;-3.39;100.00;93946.78;5011359;28;20050;-60
2023/03/03 04:32:39;;;;;;;65.95;24.17;;;;;;;-3.36;100.00;93952.28;5021934;28;20045;-61
2023/03/03 04:35:06;;;;;;;61.63;23.40;;;;;;;-3.28;100.00;93939.91;5029744;28;20040;-60
2023/03/03 04:37:35;;;;;;;124.78;45.45;;;;;;;-3.22;100.00;93938.59;5029590;28;20045;-61
2023/03/03 04:40:05;;;;;;;69.97;26.48;;;;;;;-3.17;100.00;93943.78;5043024;28;20048;-60
2023/03/03 04:42:32;;;;;;;64.97;24.47;;;;;;;-3.15;100.00;93946.91;5029607;28;20405;-58
2023/03/03 04:44:58;;;;;;;62.15;23.38;;;;;;;-3.14;100.00;93939.63;5029627;28;20037;-60
2023/03/03 04:47:25;;;;;;;62.50;24.17;;;;;;;-3.05;100.00;93951.09;5029724;28;20393;-61
2023/03/03 04:49:52;;;;;;;66.57;23.48;;;;;;;-3.00;100.00;93950.88;5027671;28;20147;-60
2023/03/03 04:52:19;;;;;;;66.65;24.55;;;;;;;-3.01;100.00;93936.69;5028448;28;20064;-61
2023/03/03 04:54:45;;;;;;;67.00;24.67;;;;;;;-2.95;100.00;93936.50;5029157;28;20402;-60
2023/03/03 04:57:12;;;;;;;67.55;23.45;;;;;;;-2.88;100.00;93942.09;5029733;28;20340;-60
2023/03/03 04:59:39;;;;;;;64.07;23.67;;;;;;;-2.87;100.00;93941.00;5028695;28;20080;-60
2023/03/03 05:02:05;;;;;;;64.55;23.58;;;;;;;-2.80;100.00;93946.59;5029631;28;20048;-60
2023/03/03 05:04:33;;;;;;;62.45;23.65;;;;;;;-2.79;100.00;93950.88;5029005;28;20049;-61
2023/03/03 05:06:59;;;;;;;62.07;23.63;;;;;;;-2.90;100.00;93945.09;5029634;28;20045;-61
2023/03/03 05:09:26;;;;;;;65.60;24.45;;;;;;;-3.07;100.00;93956.78;5037340;28;20045;-60
2023/03/03 05:11:53;;;;;;;62.67;23.70;;;;;;;-3.10;100.00;93952.09;5035573;28;20055;-61
2023/03/03 05:14:20;;;;;;;63.13;24.00;;;;;;;-2.89;100.00;93952.06;5033149;28;20053;-61
2023/03/03 05:16:47;;;;;;;61.90;23.75;;;;;;;-2.85;100.00;93942.22;5032890;28;20416;-61
2023/03/03 05:19:13;;;;;;;65.33;24.03;;;;;;;-2.81;100.00;93951.19;5031675;28;20087;-61
2023/03/03 05:21:41;;;;;;;62.88;23.60;;;;;;;-2.68;100.00;93945.88;5031522;28;20050;-60
2023/03/03 05:24:10;;;;;;;76.75;28.58;;;;;;;-2.89;100.00;93951.28;5033453;28;20041;-59
2023/03/03 05:26:36;;;;;;;74.47;26.98;;;;;;;-2.71;100.00;93949.22;5031218;28;20037;-60
2023/03/03 05:29:03;;;;;;;68.75;26.77;;;;;;;-2.76;100.00;93952.13;5021601;28;20050;-60
2023/03/03 05:31:30;;;;;;;68.23;25.60;;;;;;;-2.65;100.00;93955.97;5015848;28;20045;-60
2023/03/03 05:33:58;;;;;;;67.18;24.98;;;;;;;-2.66;100.00;93949.78;5032885;28;20121;-61
2023/03/03 05:36:25;;;;;;;67.70;24.65;;;;;;;-2.87;100.00;93949.84;5032893;28;20045;-59
2023/03/03 05:38:51;;;;;;;65.32;24.65;;;;;;;-2.83;100.00;93955.34;5032712;28;20045;-62
2023/03/03 05:41:18;;;;;;;70.57;25.60;;;;;;;-2.81;100.00;93967.31;5032774;28;20038;-59
2023/03/03 05:43:45;;;;;;;72.00;25.53;;;;;;;-2.71;100.00;93965.34;5014667;28;20045;-59
2023/03/03 05:46:12;;;;;;;68.78;25.45;;;;;;;-2.63;100.00;93967.16;5032497;28;20050;-60
2023/03/03 05:48:39;;;;;;;69.93;26.25;;;;;;;-2.64;100.00;93970.97;5032406;28;20053;-60
2023/03/03 05:51:06;;;;;;;66.95;25.27;;;;;;;-2.58;100.00;93975.00;5032634;28;20040;-61
2023/03/03 05:53:32;;;;;;;66.95;25.35;;;;;;;-2.59;100.00;93980.72;5024380;28;20048;-59
2023/03/03 05:55:59;;;;;;;66.73;25.40;;;;;;;-2.69;100.00;93976.56;5025403;28;20045;-60
2023/03/03 05:58:26;;;;;;;72.55;26.63;;;;;;;-2.68;100.00;93976.19;5037113;28;20498;-60
2023/03/03 06:00:52;;;;;;;72.55;26.92;;;;;;;-2.65;100.00;93980.94;5038794;28;20045;-61
2023/03/03 06:03:19;;;;;;;70.43;26.55;;;;;;;-2.53;100.00;93976.72;5032365;28;20041;-60
2023/03/03 06:05:46;;;;;;;72.20;26.85;;;;;;;-2.43;100.00;93982.47;5032133;28;20037;-62
2023/03/03 06:08:13;;;;;;;73.77;26.87;;;;;;;-2.30;100.00;93985.94;5031078;28;20045;-60
2023/03/03 06:10:39;;;;;;;67.25;25.20;;;;;;;-2.18;100.00;93987.88;5031711;28;20079;-61
2023/03/03 06:13:06;;;;;;;74.55;27.92;;;;;;;-2.27;100.00;93995.28;5032018;28;20045;-62
2023/03/03 06:15:33;;;;;;;77.50;29.02;;;;;;;-2.33;100.00;93991.22;5031937;28;20380;-60
2023/03/03 06:17:59;;;;;;;79.13;28.00;;;;;;;-2.19;100.00;93991.72;5031976;28;20037;-60
2023/03/03 06:20:26;;;;;;;81.13;27.10;;;;;;;-2.27;100.00;93997.97;5032239;28;20057;-59
2023/03/03 06:22:53;;;;;;;74.97;27.58;;;;;;;-2.21;100.00;93999.31;5029368;28;20041;-59
2023/03/03 06:25:20;;;;;;;72.88;27.92;;;;;;;-2.04;100.00;93995.66;5031791;28;20054;-61
2023/03/03 06:27:47;;;;;;;74.10;28.33;;;;;;;-2.13;100.00;93995.75;5031317;28;20045;-60
2023/03/03 06:30:14;;;;;;;78.35;28.65;;;;;;;-2.25;100.00;93996.50;5031637;28;20090;-62
2023/03/03 06:32:41;;;;;;;78.17;28.00;;;;;;;-1.99;100.00;94002.72;5030328;28;20048;-61
2023/03/03 06:35:07;;;;;;;74.82;27.33;;;;;;;-1.86;100.00;93999.72;5031853;28;20037;-60
2023/03/03 06:37:34;;;;;;;80.07;29.40;;;;;;;-1.87;100.00;93997.34;5031290;28;20114;-61
2023/03/03 06:40:02;;;;;;;74.45;28.42;;;;;;;-1.71;100.00;94002.84;5014149;28;20045;-60
2023/03/03 06:42:29;;;;;;;75.07;27.60;;;;;;;-1.67;100.00;94007.25;5031789;28;20049;-60
2023/03/03 06:44:56;;;;;;;73.90;26.87;;;;;;;-1.54;100.00;94004.56;5030905;28;21843;-60
2023/03/03 06:47:23;;;;;;;72.65;27.58;;;;;;;-1.61;100.00;94002.41;5031605;28;20681;-59
2023/03/03 06:49:49;;;;;;;76.93;29.50;;;;;;;-1.53;100.00;94008.81;5031050;28;20041;-58
2023/03/03 06:52:25;;;;;;;77.93;29.95;;;;;;;-2.04;100.00;94001.03;5025154;28;20041;-58
2023/03/03 06:54:54;;;;;;;76.05;28.98;;;;;;;-1.77;100.00;94007.69;5023680;28;20392;-60
2023/03/03 06:57:29;;;;;;;71.70;27.30;;;;;;;-1.80;100.00;94016.41;5031400;28;20053;-58
2023/03/03 07:00:01;;;;;;;77.88;30.42;;;;;;;-1.91;100.00;94016.06;5030192;28;20477;-59
2023/03/03 07:02:28;;;;;;;74.65;27.67;;;;;;;-1.77;100.00;94018.47;5030152;28;20057;-59
2023/03/03 07:04:55;;;;;;;83.15;30.17;;;;;;;-2.12;100.00;94018.81;5030372;28;20882;-59
2023/03/03 07:07:24;;;;;;;73.80;28.08;;;;;;;-1.87;100.00;94022.34;5031299;28;20041;-59
2023/03/03 07:09:55;;;;;;;71.13;26.53;;;;;;;-1.55;100.00;94019.13;5030442;28;20118;-60
2023/03/03 07:12:26;;;;;;;73.35;26.27;;;;;;;-1.32;100.00;94031.03;5031397;28;20097;-59
2023/03/03 07:15:11;;;;;;;69.25;26.80;;;;;;;-1.13;100.00;94027.75;5030809;28;20046;-59
2023/03/03 07:17:47;;;;;;;75.82;27.80;;;;;;;-1.07;100.00;94021.00;5030774;28;20094;-59
2023/03/03 07:20:34;;;;;;;72.63;27.70;;;;;;;-0.89;100.00;94026.91;5031037;28;20057;-59
2023/03/03 07:23:20;;;;;;;74.60;28.30;;;;;;;-0.78;100.00;94023.78;5030098;28;20390;-60
2023/03/03 07:25:47;;;;;;;72.97;27.88;;;;;;;-0.77;100.00;94018.03;5030360;28;20498;-59
2023/03/03 07:28:26;;;;;;;77.75;29.80;;;;;;;-0.83;100.00;94022.88;5030548;28;20045;-59
2023/03/03 07:30:54;;;;;;;79.97;29.88;;;;;;;-0.49;100.00;94031.53;5030161;28;20044;-59
2023/03/03 07:33:33;;;;;;;71.78;29.15;;;;;;;-0.34;100.00;94027.34;5029202;28;20049;-58
2023/03/03 07:36:02;;;;;;;73.13;28.13;;;;;;;-0.34;100.00;94038.13;5029432;28;20684;-59
2023/03/03 07:38:41;;;;;;;73.47;27.85;;;;;;;-0.25;100.00;94033.34;5030630;28;20315;-60
2023/03/03 07:41:25;;;;;;;72.88;29.23;;;;;;;-0.24;100.00;94028.75;5029689;28;20379;-59
2023/03/03 07:44:05;;;;;;;72.68;27.08;;;;;;;-0.19;100.00;94035.81;5030222;28;20046;-59
2023/03/03 07:46:41;;;;;;;74.28;28.83;;;;;;;-0.49;100.00;94036.16;5017549;28;20049;-59
2023/03/03 07:49:32;;;;;;;70.43;28.43;;;;;;;-0.12;100.00;94041.38;5030392;28;20046;-62
2023/03/03 07:52:00;;;;;;;79.53;29.65;;;;;;;-0.02;100.00;94043.59;5028400;28;20106;-60
2023/03/03 07:54:42;;;;;;;77.63;29.90;;;;;;;-0.13;100.00;94050.63;5030106;28;20449;-60
2023/03/03 07:57:24;;;;;;;67.30;26.23;;;;;;;-0.01;100.00;94055.97;5029349;28;20869;-61
2023/03/03 07:59:59;;;;;;;74.07;27.90;;;;;;;-0.07;100.00;94051.94;5029730;28;20041;-60
2023/03/03 08:02:38;;;;;;;72.23;26.43;;;;;;;0.21;100.00;94057.31;5030061;28;20072;-62
2023/03/03 08:05:26;;;;;;;71.80;26.98;;;;;;;-0.09;100.00;94054.97;5029131;28;20045;-61
2023/03/03 08:08:01;;;;;;;73.60;28.42;;;;;;;0.09;100.00;94054.69;5012125;28;20548;-60
2023/03/03 08:10:52;;;;;;;70.22;27.55;;;;;;;0.13;100.00;94061.72;5029049;28;20042;-60
2023/03/03 08:13:22;;;;;;;69.47;27.27;;;;;;;0.38;100.00;94059.69;5027910;28;20798;-59
2023/03/03 08:15:54;;;;;;;70.67;26.77;;;;;;;0.50;100.00;94066.13;5029624;28;20087;-59
2023/03/03 08:18:29;;;;;;;79.80;30.25;;;;;;;0.09;100.00;94070.88;5030157;28;20513;-61
2023/03/03 08:21:01;;;;;;;75.75;28.80;;;;;;;0.17;100.00;94064.53;5029093;28;20843;-60
2023/03/03 08:23:28;;;;;;;67.65;27.60;;;;;;;0.55;100.00;94068.56;5030053;28;20044;-60
2023/03/03 08:25:55;;;;;;;71.57;26.58;;;;;;;0.67;100.00;94065.00;5040864;28;20041;-62
2023/03/03 08:28:22;;;;;;;70.20;27.40;;;;;;;0.72;100.00;94076.31;5018209;28;20046;-60
2023/03/03 08:30:49;;;;;;;76.70;29.80;;;;;;;0.45;100.00;94069.88;5009486;28;20071;-60
2023/03/03 08:33:17;;;;;;;79.80;31.42;;;;;;;0.52;100.00;94070.03;5028925;28;20045;-59
2023/03/03 08:35:44;;;;;;;79.10;30.42;;;;;;;0.38;100.00;94075.88;5042480;28;20436;-60
2023/03/03 08:38:12;;;;;;;74.88;30.08;;;;;;;0.71;100.00;94077.47;5028469;28;20049;-61
2023/03/03 08:40:39;;;;;;;74.07;29.07;;;;;;;0.80;100.00;94079.97;5029250;28;20068;-59
2023/03/03 08:43:06;;;;;;;73.85;30.30;;;;;;;0.87;100.00;94082.09;5029787;28;20041;-60
2023/03/03 08:45:34;;;;;;;77.28;31.17;;;;;;;0.92;100.00;94079.88;5029271;28;20056;-60
2023/03/03 08:48:01;;;;;;;74.78;30.90;;;;;;;0.69;100.00;94076.25;5029054;28;20052;-59
2023/03/03 08:50:31;;;;;;;74.40;31.90;;;;;;;1.18;100.00;94081.25;5029385;28;20042;-59
2023/03/03 08:52:59;;;;;;;72.47;29.63;;;;;;;1.24;100.00;94073.66;5028289;28;20075;-61
2023/03/03 08:55:26;;;;;;;67.75;28.45;;;;;;;1.20;100.00;94071.66;5029627;28;20051;-60
2023/03/03 08:57:52;;;;;;;73.68;30.70;;;;;;;0.79;100.00;94079.19;5027583;28;20045;-60
2023/03/03 09:00:19;;;;;;;70.28;28.88;;;;;;;0.71;100.00;94084.78;5042649;28;20402;-60
2023/03/03 09:02:48;;;;;;;76.88;32.03;;;;;;;0.39;100.00;94079.34;5029023;28;20122;-61
2023/03/03 09:05:16;;;;;;;73.33;29.40;;;;;;;0.91;100.00;94078.31;5029299;28;20046;-60
2023/03/03 09:07:44;;;;;;;70.32;28.95;;;;;;;1.14;100.00;94078.47;5037275;28;20045;-61
2023/03/03 09:10:16;;;;;;;73.50;31.40;;;;;;;0.59;100.00;94075.63;5033680;28;20230;-61
2023/03/03 09:12:48;;;;;;;77.65;29.75;;;;;;;1.02;100.00;94070.47;5028981;28;20061;-60
2023/03/03 09:15:22;;;;;;;78.38;33.17;;;;;;;0.16;100.00;94085.34;5029458;28;20044;-60
2023/03/03 09:17:50;;;;;;;77.50;30.83;;;;;;;0.72;100.00;94084.41;5028786;28;20395;-61
2023/03/03 09:20:34;;;;;;;73.50;30.98;;;;;;;1.06;100.00;94075.97;5028837;28;20044;-60
2023/03/03 09:23:22;;;;;;;76.75;31.52;;;;;;;1.18;100.00;94082.03;5028639;28;20890;-61
2023/03/03 09:25:50;;;;;;;79.75;31.60;;;;;;;0.83;100.00;94092.81;5016894;28;20122;-62
2023/03/03 09:28:29;;;;;;;74.43;30.58;;;;;;;1.05;100.00;94088.69;5018590;28;20042;-61
2023/03/03 09:30:59;;;;;;;74.37;31.73;;;;;;;0.81;100.00;94086.97;5009219;28;21580;-62
2023/03/03 09:33:27;;;;;;;75.93;30.52;;;;;;;0.81;100.00;94091.59;5029562;28;20414;-60
2023/03/03 09:36:19;;;;;;;77.25;31.40;;;;;;;0.97;100.00;94092.38;5029019;28;20049;-60
2023/03/03 09:38:46;;;;;;;75.05;31.63;;;;;;;0.83;100.00;94094.72;5028793;28;20057;-62
2023/03/03 09:41:40;;;;;;;76.28;32.17;;;;;;;0.98;100.00;94094.69;5029219;28;20057;-62
2023/03/03 09:44:51;;;;;;;76.37;29.77;;;;;;;0.98;100.00;94097.41;5028428;28;20440;-60
2023/03/03 09:47:30;;;;;;;74.20;30.10;;;;;;;1.36;100.00;94095.16;5003752;28;20037;-61
2023/03/03 09:50:08;;;;;;;81.10;30.92;;;;;;;1.32;100.00;94095.09;5028102;28;20911;-61
2023/03/03 09:53:02;;;;;;;78.85;29.77;;;;;;;1.34;100.00;94100.16;5028655;28;20098;-60
2023/03/03 09:55:43;;;;;;;75.32;30.40;;;;;;;1.56;100.00;94082.47;5036461;28;20045;-61
2023/03/03 09:58:28;;;;;;;79.47;31.23;;;;;;;1.28;100.00;94078.00;5032017;28;20428;-60
2023/03/03 10:01:22;;;;;;;71.03;29.33;;;;;;;2.20;100.00;94085.69;5031283;28;20046;-61
2023/03/03 10:04:09;;;;;;;82.70;34.72;;;;;;;1.81;100.00;94080.28;5030950;28;20041;-59
2023/03/03 10:07:06;;;;;;;72.20;29.65;;;;;;;2.21;100.00;94084.53;5030677;28;20380;-60
2023/03/03 10:10:05;;;;;;;75.97;29.80;;;;;;;1.71;100.00;94084.34;5031840;28;20041;-61
2023/03/03 10:12:47;;;;;;;68.40;27.87;;;;;;;2.40;100.00;94089.16;5024151;28;20087;-60
2023/03/03 10:15:41;;;;;;;80.35;30.02;;;;;;;2.10;100.00;94094.41;5032350;28;20171;-61
2023/03/03 10:18:38;;;;;;;74.68;30.08;;;;;;;2.24;100.00;94089.25;5031326;28;20409;-60
2023/03/03 10:21:11;;;;;;;70.57;29.77;;;;;;;3.12;100.00;94091.16;5020810;28;20658;-59
2023/03/03 10:23:47;;;;;;;77.70;32.00;;;;;;;2.59;100.00;94088.34;5031381;28;20050;-59
2023/03/03 10:26:26;;;;;;;81.17;31.03;;;;;;;2.42;100.00;94096.94;5032208;28;20041;-61
2023/03/03 10:29:29;;;;;;;84.43;30.63;;;;;;;3.02;100.00;94097.19;5012305;28;20650;-64
2023/03/03 10:32:25;;;;;;;73.00;29.70;;;;;;;3.81;100.00;94101.06;5022305;28;20627;-60
2023/03/03 10:35:02;;;;;;;89.55;32.42;;;;;;;3.34;100.00;94100.41;5031323;28;20090;-59
2023/03/03 10:37:36;;;;;;;80.20;31.52;;;;;;;3.23;100.00;94101.38;5031861;28;20045;-60
2023/03/03 10:40:33;;;;;;;81.53;32.10;;;;;;;4.19;100.00;94096.50;5021677;28;21335;-61
2023/03/03 10:43:03;;;;;;;75.95;32.08;;;;;;;4.39;100.00;94102.53;5027562;28;20954;-62
2023/03/03 10:45:34;;;;;;;71.35;29.77;;;;;;;5.01;100.00;94102.00;5030272;28;20049;-61
2023/03/03 10:48:23;;;;;;;90.15;30.00;;;;;;;4.44;100.00;94106.84;5030998;28;20596;-60
2023/03/03 10:51:14;;;;;;;74.78;33.70;;;;;;;3.15;100.00;94117.53;5031060;28;20456;-61
2023/03/03 10:54:23;;;;;;;68.70;31.27;;;;;;;3.19;100.00;94114.88;5031051;28;20045;-61
2023/03/03 10:57:01;;;;;;;75.20;31.23;;;;;;;3.10;100.00;94106.22;5016119;28;20048;-60
2023/03/03 10:59:40;;;;;;;74.72;30.98;;;;;;;4.25;100.00;94105.88;5031248;28;20046;-60
2023/03/03 11:02:14;;;;;;;72.30;32.13;;;;;;;3.72;100.00;94103.25;5030440;28;20696;-62
2023/03/03 11:04:48;;;;;;;80.75;31.65;;;;;;;4.05;100.00;94104.47;5031001;28;20037;-62
2023/03/03 11:07:27;;;;;;;69.13;30.33;;;;;;;4.70;100.00;94097.81;5031462;28;20072;-62
2023/03/03 11:10:15;;;;;;;74.80;30.48;;;;;;;5.59;100.00;94104.00;5029226;28;20045;-61
2023/03/03 11:13:10;;;;;;;70.30;31.35;;;;;;;5.26;100.00;94094.03;5030904;28;20041;-61
2023/03/03 11:15:54;;;;;;;70.38;28.98;;;;;;;5.69;99.77;94093.53;5031039;28;20041;-62
2023/03/03 11:18:46;;;;;;;67.82;31.48;;;;;;;6.59;88.91;94087.34;5031160;28;20045;-61
2023/03/03 11:21:31;;;;;;;66.70;29.80;;;;;;;7.28;85.49;94088.22;5030084;28;20480;-60
2023/03/03 11:24:18;;;;;;;65.38;32.33;;;;;;;6.42;88.68;94085.38;5019273;28;21559;-61
2023/03/03 11:27:11;;;;;;;63.75;30.50;;;;;;;8.10;82.28;94086.53;5030316;28;20082;-62
2023/03/03 11:30:24;;;;;;;65.15;31.48;;;;;;;8.52;73.40;94076.63;5020183;28;20050;-60
2023/03/03 11:33:07;;;;;;;63.53;30.23;;;;;;;8.39;72.40;94070.78;4986800;28;20042;-60
2023/03/03 11:35:47;;;;;;;62.53;31.43;;;;;;;6.71;81.46;94071.78;5018381;28;20049;-62